Djerba-Zarzis

Airport
ICAO code: 
DTTJ
Summary
ICAO Region: 
AFI
Territory: 
Location: 
Djerba, Tunisia,
Coordinates: 
Aerial View: 
33° 52' 30" N, 10° 46' 31.801" E
Metar
Observation
DTTJ 010900Z 26008KT CAVOK 16/10 Q1026 NOSIG
Station
Djerba Mellita
Date/Time
2021-12-01 09:00:00
Wind direction
260°
Wind speed
08 kts
Lowest cloud amount
clouds and visibility OK
Temperature
16°C
Dew point
10°C
Humidity
67%
QNH
1026 hPa
Weather condition
n/a

Description

Djerba - Zarzis International Airport is an airport serving Djerba in Tunisia.

Climatology

(Köppen climate classification BSh)

Runways

Designator Length Width Surface Rops
9/27 3100 45 ASP Yes/Yes
Airport map: 
Aerial View: 

SKYbrary Partners:

Safety knowledge contributed by: